createdAt,value
2018-09-03T00:01:43.935Z,7.50
2018-09-03T00:04:11.793Z,7.50
2018-09-03T00:06:39.266Z,7.50
2018-09-03T00:09:08.213Z,7.50
2018-09-03T00:11:35.624Z,7.50
2018-09-03T00:14:03.491Z,7.50
2018-09-03T00:16:30.984Z,7.50
2018-09-03T00:18:58.395Z,7.50
2018-09-03T00:21:25.857Z,7.50
2018-09-03T00:23:53.281Z,7.40
2018-09-03T00:26:20.686Z,7.40
2018-09-03T00:28:48.153Z,7.50
2018-09-03T00:31:21.341Z,7.50
2018-09-03T00:33:54.481Z,7.50
2018-09-03T00:36:27.577Z,7.50
2018-09-03T00:39:00.738Z,7.50
2018-09-03T00:41:33.799Z,7.50
2018-09-03T00:44:06.871Z,7.50
2018-09-03T00:46:39.997Z,7.50
2018-09-03T00:49:07.696Z,7.40
2018-09-03T00:51:35.103Z,7.30
2018-09-03T00:54:02.493Z,7.30
2018-09-03T00:56:29.929Z,7.30
2018-09-03T00:58:57.381Z,7.20
2018-09-03T01:01:24.886Z,7.20
2018-09-03T01:03:52.297Z,7.20
2018-09-03T01:06:19.690Z,7.10
2018-09-03T01:08:47.137Z,7.00
2018-09-03T01:11:14.572Z,6.90
2018-09-03T01:13:41.997Z,7.00
2018-09-03T01:16:09.392Z,7.00
2018-09-03T01:18:40.526Z,7.00
2018-09-03T01:21:07.936Z,7.00
2018-09-03T01:23:35.387Z,7.00
2018-09-03T01:26:02.908Z,6.90
2018-09-03T01:28:30.353Z,7.00
2018-09-03T01:30:58.148Z,7.00
2018-09-03T01:33:25.537Z,6.90
2018-09-03T01:35:53.193Z,7.00
2018-09-03T01:38:20.654Z,7.00
2018-09-03T01:40:48.117Z,7.00
2018-09-03T01:43:15.549Z,7.00
2018-09-03T01:45:42.966Z,7.10
2018-09-03T01:48:10.435Z,7.20
2018-09-03T01:50:37.925Z,7.30
2018-09-03T01:53:05.405Z,7.30
2018-09-03T01:55:32.796Z,7.30
2018-09-03T01:58:00.226Z,7.30
2018-09-03T02:00:27.615Z,7.40
2018-09-03T02:02:55.037Z,7.40
2018-09-03T02:05:22.465Z,7.50
2018-09-03T02:07:50.069Z,7.60
2018-09-03T02:10:17.561Z,7.80
2018-09-03T02:12:45.009Z,7.80
2018-09-03T02:15:12.424Z,7.80
2018-09-03T02:17:39.857Z,7.80
2018-09-03T02:20:07.334Z,7.80
2018-09-03T02:22:34.756Z,7.80
2018-09-03T02:25:02.155Z,7.80
2018-09-03T02:27:29.593Z,7.90
2018-09-03T02:29:56.978Z,7.90
2018-09-03T02:32:24.386Z,8.00
2018-09-03T02:34:51.780Z,8.00
2018-09-03T02:37:19.184Z,8.00
2018-09-03T02:39:46.596Z,8.00
2018-09-03T02:42:13.976Z,8.00
2018-09-03T02:44:41.444Z,8.10
2018-09-03T02:47:08.870Z,8.10
2018-09-03T02:49:36.336Z,8.10
2018-09-03T02:52:03.812Z,8.10
2018-09-03T02:54:31.352Z,8.10
2018-09-03T02:56:58.801Z,8.20
2018-09-03T02:59:26.188Z,8.20
2018-09-03T03:01:53.596Z,8.30
2018-09-03T03:04:20.999Z,8.30
2018-09-03T03:06:48.419Z,8.40
2018-09-03T03:09:15.837Z,8.50
2018-09-03T03:11:43.250Z,8.50
2018-09-03T03:14:10.676Z,8.50
2018-09-03T03:16:38.059Z,8.60
2018-09-03T03:19:05.497Z,8.70
2018-09-03T03:21:33.033Z,8.70
2018-09-03T03:24:00.423Z,8.70
2018-09-03T03:26:27.845Z,8.80
2018-09-03T03:28:55.365Z,8.80
2018-09-03T03:31:22.757Z,8.80
2018-09-03T03:33:50.513Z,8.80
2018-09-03T03:36:18.161Z,8.80
2018-09-03T03:38:45.559Z,9.00
2018-09-03T03:41:12.949Z,9.00
2018-09-03T03:43:40.536Z,9.00
2018-09-03T03:46:07.957Z,9.00
2018-09-03T03:48:35.390Z,8.90
2018-09-03T03:51:02.852Z,8.90
2018-09-03T03:53:30.241Z,8.90
2018-09-03T03:55:57.709Z,8.90
2018-09-03T03:58:25.112Z,8.90
2018-09-03T04:00:52.521Z,9.00
2018-09-03T04:03:19.925Z,9.00
2018-09-03T04:05:47.345Z,9.00
2018-09-03T04:08:14.752Z,9.00
2018-09-03T04:10:42.138Z,9.00
2018-09-03T04:13:09.608Z,9.10
2018-09-03T04:15:37.015Z,9.10
2018-09-03T04:18:04.406Z,9.20
2018-09-03T04:20:31.831Z,9.20
2018-09-03T04:22:59.230Z,9.20
2018-09-03T04:25:26.657Z,9.30
2018-09-03T04:27:54.712Z,9.30
2018-09-03T04:30:22.206Z,9.30
2018-09-03T04:32:49.598Z,9.30
2018-09-03T04:35:16.984Z,9.30
2018-09-03T04:37:44.427Z,9.40
2018-09-03T04:40:11.804Z,9.60
2018-09-03T04:42:39.181Z,9.70
2018-09-03T04:45:06.677Z,9.80
2018-09-03T04:47:34.299Z,9.80
2018-09-03T04:50:01.730Z,9.80
2018-09-03T04:52:29.164Z,9.80
2018-09-03T04:54:56.637Z,9.80
2018-09-03T04:57:24.013Z,9.90
2018-09-03T04:59:51.414Z,9.90
2018-09-03T05:02:18.917Z,9.90
2018-09-03T05:04:46.306Z,10.10
2018-09-03T05:07:13.981Z,10.10
2018-09-03T05:09:41.505Z,10.10
2018-09-03T05:12:09.088Z,10.00
2018-09-03T05:14:37.139Z,10.10
2018-09-03T05:17:04.805Z,10.20
2018-09-03T05:19:32.222Z,10.30
2018-09-03T05:21:59.645Z,10.40
2018-09-03T05:24:27.046Z,10.50
2018-09-03T05:26:54.553Z,10.60
2018-09-03T05:29:22.002Z,10.60
2018-09-03T05:31:49.498Z,10.70
2018-09-03T05:34:16.890Z,10.70
2018-09-03T05:36:44.297Z,10.50
2018-09-03T05:39:12.582Z,10.70
2018-09-03T05:41:40.256Z,10.80
2018-09-03T05:44:08.198Z,10.90
2018-09-03T05:46:36.112Z,10.90
2018-09-03T05:49:03.524Z,10.70
2018-09-03T05:51:30.913Z,10.80
2018-09-03T05:53:58.372Z,10.80
2018-09-03T05:56:25.773Z,10.80
2018-09-03T05:58:53.217Z,10.90
2018-09-03T06:01:20.637Z,11.00
2018-09-03T06:03:48.030Z,11.10
2018-09-03T06:06:15.481Z,11.00
2018-09-03T06:08:42.881Z,10.90
2018-09-03T06:11:10.378Z,11.00
2018-09-03T06:13:37.921Z,11.10
2018-09-03T06:16:05.640Z,11.10
2018-09-03T06:18:33.061Z,11.40
2018-09-03T06:21:00.473Z,11.70
2018-09-03T06:23:27.893Z,11.60
2018-09-03T06:25:55.340Z,11.70
2018-09-03T06:28:22.762Z,11.70
2018-09-03T06:30:50.216Z,12.00
2018-09-03T06:33:17.615Z,11.90
2018-09-03T06:35:45.039Z,12.10
2018-09-03T06:38:12.481Z,12.40
2018-09-03T06:40:39.907Z,12.40
2018-09-03T06:43:07.315Z,12.40
2018-09-03T06:45:34.737Z,12.50
2018-09-03T06:48:02.129Z,12.70
2018-09-03T06:50:29.553Z,12.70
2018-09-03T06:52:56.952Z,12.70
2018-09-03T06:55:24.424Z,12.70
2018-09-03T06:57:51.829Z,12.90
2018-09-03T07:00:19.233Z,12.90
2018-09-03T07:02:46.665Z,12.90
2018-09-03T07:05:14.127Z,12.90
2018-09-03T07:07:41.929Z,12.90
2018-09-03T07:10:10.086Z,12.90
2018-09-03T07:12:38.115Z,13.10
2018-09-03T07:15:06.014Z,13.00
2018-09-03T07:17:33.471Z,13.00
2018-09-03T07:20:00.913Z,12.90
2018-09-03T07:22:28.345Z,13.00
2018-09-03T07:24:55.775Z,13.10
2018-09-03T07:27:23.164Z,13.10
2018-09-03T07:29:50.609Z,13.20
2018-09-03T07:32:18.065Z,13.30
2018-09-03T07:34:45.452Z,13.30
2018-09-03T07:37:12.856Z,13.50
2018-09-03T07:39:40.253Z,13.70
2018-09-03T07:42:07.682Z,13.70
2018-09-03T07:44:35.093Z,13.80
2018-09-03T07:47:02.693Z,13.70
2018-09-03T07:49:30.068Z,13.70
2018-09-03T07:51:57.480Z,13.80
2018-09-03T07:54:24.932Z,13.70
2018-09-03T07:56:52.377Z,13.70
2018-09-03T07:59:19.784Z,13.80
2018-09-03T08:01:47.214Z,13.90
2018-09-03T08:04:14.619Z,14.30
2018-09-03T08:06:42.040Z,14.50
2018-09-03T08:09:10.609Z,14.60
2018-09-03T08:11:38.066Z,14.80
2018-09-03T08:14:05.537Z,15.00
2018-09-03T08:16:32.966Z,15.00
2018-09-03T08:19:00.377Z,15.10
2018-09-03T08:21:27.790Z,15.10
2018-09-03T08:23:55.376Z,15.00
2018-09-03T08:26:22.784Z,15.00
2018-09-03T08:28:50.192Z,15.20
2018-09-03T08:31:17.685Z,15.50
2018-09-03T08:33:45.080Z,15.50
2018-09-03T08:36:12.585Z,15.60
2018-09-03T08:38:40.066Z,15.60
2018-09-03T08:41:07.453Z,15.30
2018-09-03T08:43:34.840Z,15.30
2018-09-03T08:46:02.277Z,15.20
2018-09-03T08:48:29.690Z,15.10
2018-09-03T08:50:57.093Z,15.00
2018-09-03T08:53:24.504Z,15.00
2018-09-03T08:55:51.915Z,15.10
2018-09-03T08:58:19.352Z,15.30
2018-09-03T09:00:46.790Z,15.60
2018-09-03T09:03:20.860Z,15.90
2018-09-03T09:05:48.329Z,16.00
2018-09-03T09:08:15.709Z,16.00
2018-09-03T09:10:43.178Z,15.80
2018-09-03T09:13:10.697Z,15.70
2018-09-03T09:15:38.190Z,15.60
2018-09-03T09:18:05.601Z,15.80
2018-09-03T09:20:33.008Z,16.00
2018-09-03T09:23:00.418Z,16.20
2018-09-03T09:25:27.865Z,16.20
2018-09-03T09:27:55.234Z,16.30
2018-09-03T09:30:22.681Z,16.50
2018-09-03T09:32:50.085Z,16.70
2018-09-03T09:35:17.481Z,16.70
2018-09-03T09:37:44.903Z,16.70
2018-09-03T09:40:12.578Z,16.70
2018-09-03T09:42:40.521Z,16.60
2018-09-03T09:45:08.230Z,16.70
2018-09-03T09:47:35.853Z,16.70
2018-09-03T09:50:03.389Z,16.80
2018-09-03T09:52:31.008Z,16.80
2018-09-03T09:54:58.484Z,16.80
2018-09-03T09:57:25.841Z,17.00
2018-09-03T09:59:53.323Z,17.30
2018-09-03T10:02:20.743Z,17.30
2018-09-03T10:04:48.141Z,17.10
2018-09-03T10:07:15.548Z,17.20
2018-09-03T10:09:43.038Z,17.10
2018-09-03T10:12:10.459Z,17.10
2018-09-03T10:14:37.898Z,17.10
2018-09-03T10:17:05.360Z,17.10
2018-09-03T10:19:32.760Z,17.10
2018-09-03T10:22:00.167Z,17.00
2018-09-03T10:24:27.597Z,16.90
2018-09-03T10:26:55.064Z,17.00
2018-09-03T10:29:22.469Z,17.10
2018-09-03T10:31:49.896Z,17.10
2018-09-03T10:34:17.319Z,17.10
2018-09-03T10:36:44.863Z,17.20
2018-09-03T10:39:12.264Z,17.10
2018-09-03T10:41:39.676Z,17.00
2018-09-03T10:44:07.260Z,17.00
2018-09-03T10:46:34.697Z,17.10
2018-09-03T10:49:02.114Z,17.20
2018-09-03T10:51:29.546Z,17.30
2018-09-03T10:53:56.964Z,17.40
2018-09-03T10:56:24.341Z,17.60
2018-09-03T10:58:51.753Z,17.70
2018-09-03T11:01:19.130Z,17.70
2018-09-03T11:03:46.529Z,17.70
2018-09-03T11:06:13.917Z,17.60
2018-09-03T11:08:41.361Z,17.70
2018-09-03T11:11:08.769Z,17.80
2018-09-03T11:13:36.182Z,17.80
2018-09-03T11:16:03.600Z,18.00
2018-09-03T11:18:31.882Z,17.80
2018-09-03T11:20:59.332Z,17.80
2018-09-03T11:23:26.729Z,17.80
2018-09-03T11:25:54.151Z,17.70
2018-09-03T11:28:21.612Z,17.80
2018-09-03T11:30:49.053Z,17.80
2018-09-03T11:33:16.449Z,18.00
2018-09-03T11:35:43.892Z,18.00
2018-09-03T11:38:11.327Z,18.10
2018-09-03T11:40:38.822Z,18.30
2018-09-03T11:43:06.371Z,18.30
2018-09-03T11:45:33.917Z,18.50
2018-09-03T11:48:01.704Z,18.50
2018-09-03T11:50:29.797Z,18.60
2018-09-03T11:52:58.024Z,18.80
2018-09-03T11:55:25.600Z,18.80
2018-09-03T11:57:53.368Z,18.70
2018-09-03T12:00:29.142Z,18.90
2018-09-03T12:02:56.917Z,18.80
2018-09-03T12:05:24.332Z,18.90
2018-09-03T12:07:51.749Z,18.90
2018-09-03T12:10:19.160Z,18.70
2018-09-03T12:12:46.581Z,19.00
2018-09-03T12:15:19.252Z,18.90
2018-09-03T12:17:46.696Z,19.00
2018-09-03T12:20:14.117Z,19.10
2018-09-03T12:22:41.521Z,19.20
2018-09-03T12:25:08.904Z,19.20
2018-09-03T12:27:36.347Z,19.20
2018-09-03T12:30:03.832Z,19.30
2018-09-03T12:32:31.312Z,19.30
2018-09-03T12:34:58.709Z,19.30
2018-09-03T12:37:26.112Z,19.40
2018-09-03T12:39:53.785Z,19.40
2018-09-03T12:42:21.187Z,19.40
2018-09-03T12:44:48.597Z,19.50
2018-09-03T12:47:16.257Z,19.50
2018-09-03T12:49:43.769Z,19.40
2018-09-03T12:52:11.144Z,19.40
2018-09-03T12:54:38.581Z,19.40
2018-09-03T12:57:06.022Z,19.50
2018-09-03T12:59:33.417Z,19.60
2018-09-03T13:02:01.163Z,19.70
2018-09-03T13:04:28.590Z,19.70
2018-09-03T13:06:56.016Z,19.70
2018-09-03T13:09:23.413Z,19.70
2018-09-03T13:11:50.836Z,19.80
2018-09-03T13:14:18.233Z,19.90
2018-09-03T13:16:45.606Z,19.80
2018-09-03T13:19:13.083Z,19.70
2018-09-03T13:21:40.496Z,19.80
2018-09-03T13:24:07.944Z,19.90
2018-09-03T13:26:35.450Z,19.90
2018-09-03T13:29:02.863Z,19.90
2018-09-03T13:31:30.274Z,20.00
2018-09-03T13:33:57.768Z,20.10
2018-09-03T13:36:25.166Z,20.10
2018-09-03T13:38:52.586Z,20.10
2018-09-03T13:41:20.008Z,20.00
2018-09-03T13:43:47.421Z,19.80
2018-09-03T13:46:14.856Z,19.70
2018-09-03T13:48:42.306Z,19.80
2018-09-03T13:51:09.728Z,19.80
2018-09-03T13:53:37.165Z,19.90
2018-09-03T13:56:04.595Z,19.90
2018-09-03T13:58:32.101Z,19.90
2018-09-03T14:00:59.570Z,19.80
2018-09-03T14:03:27.085Z,19.80
2018-09-03T14:05:54.603Z,20.00
2018-09-03T14:08:22.026Z,20.00
2018-09-03T14:10:49.449Z,20.00
2018-09-03T14:13:17.572Z,20.00
2018-09-03T14:15:45.043Z,20.00
2018-09-03T14:18:12.396Z,19.90
2018-09-03T14:20:39.861Z,19.90
2018-09-03T14:23:07.274Z,20.00
2018-09-03T14:25:34.676Z,20.10
2018-09-03T14:28:02.121Z,20.10
2018-09-03T14:30:29.786Z,20.10
2018-09-03T14:32:57.212Z,20.20
2018-09-03T14:35:24.613Z,20.10
2018-09-03T14:37:52.020Z,20.00
2018-09-03T14:40:19.478Z,20.00
2018-09-03T14:42:46.959Z,20.10
2018-09-03T14:45:14.529Z,20.00
2018-09-03T14:47:41.889Z,19.80
2018-09-03T14:50:09.294Z,19.80
2018-09-03T14:52:36.788Z,19.80
2018-09-03T14:55:04.549Z,19.80
2018-09-03T14:57:32.012Z,19.80
2018-09-03T14:59:59.501Z,19.90
2018-09-03T15:02:26.953Z,19.80
2018-09-03T15:04:54.297Z,19.90
2018-09-03T15:07:21.722Z,19.90
2018-09-03T15:09:49.116Z,19.80
2018-09-03T15:12:16.507Z,19.60
2018-09-03T15:14:43.974Z,19.80
2018-09-03T15:17:11.397Z,19.80
2018-09-03T15:19:38.802Z,19.70
2018-09-03T15:22:06.258Z,19.60
2018-09-03T15:24:33.653Z,19.50
2018-09-03T15:27:01.073Z,19.40
2018-09-03T15:29:28.516Z,19.30
2018-09-03T15:31:55.974Z,19.30
2018-09-03T15:34:23.349Z,19.20
2018-09-03T15:36:50.868Z,19.10
2018-09-03T15:39:18.258Z,19.10
2018-09-03T15:41:45.650Z,19.40
2018-09-03T15:44:13.097Z,19.30
2018-09-03T15:46:40.491Z,19.20
2018-09-03T15:49:08.066Z,19.00
2018-09-03T15:51:35.307Z,19.00
2018-09-03T15:54:02.839Z,19.00
2018-09-03T15:56:30.221Z,19.00
2018-09-03T15:58:57.609Z,19.10
2018-09-03T16:01:25.115Z,19.20
2018-09-03T16:03:52.481Z,19.10
2018-09-03T16:06:19.872Z,19.00
2018-09-03T16:08:47.318Z,18.90
2018-09-03T16:11:14.711Z,18.80
2018-09-03T16:13:42.194Z,18.80
2018-09-03T16:16:09.588Z,18.70
2018-09-03T16:18:37.037Z,18.60
2018-09-03T16:21:04.788Z,18.60
2018-09-03T16:23:32.225Z,18.60
2018-09-03T16:25:59.708Z,18.60
2018-09-03T16:28:27.222Z,18.50
2018-09-03T16:30:54.641Z,18.50
2018-09-03T16:33:22.090Z,18.40
2018-09-03T16:35:49.847Z,18.40
2018-09-03T16:38:17.258Z,18.40
2018-09-03T16:40:44.657Z,18.30
2018-09-03T16:43:13.092Z,18.20
2018-09-03T16:45:40.536Z,18.10
2018-09-03T16:48:08.018Z,18.00
2018-09-03T16:50:35.377Z,18.00
2018-09-03T16:53:02.821Z,17.90
2018-09-03T16:55:30.205Z,17.80
2018-09-03T16:57:57.600Z,17.80
2018-09-03T17:00:25.077Z,17.60
2018-09-03T17:02:52.540Z,17.60
2018-09-03T17:05:19.967Z,17.40
2018-09-03T17:07:47.437Z,17.40
2018-09-03T17:10:14.772Z,17.30
2018-09-03T17:12:42.326Z,17.20
2018-09-03T17:15:09.744Z,17.10
2018-09-03T17:17:37.156Z,16.90
2018-09-03T17:20:04.650Z,16.80
2018-09-03T17:22:32.274Z,16.70
2018-09-03T17:25:01.169Z,16.50
2018-09-03T17:27:28.560Z,16.40
2018-09-03T17:29:56.258Z,16.30
2018-09-03T17:32:23.657Z,16.20
2018-09-03T17:34:51.083Z,16.10
2018-09-03T17:37:18.474Z,16.00
2018-09-03T17:39:45.881Z,15.80
2018-09-03T17:42:13.367Z,15.50
2018-09-03T17:44:40.805Z,15.30
2018-09-03T17:47:08.238Z,15.10
2018-09-03T17:49:35.721Z,15.00
2018-09-03T17:52:03.183Z,15.00
2018-09-03T17:54:30.578Z,14.90
2018-09-03T17:56:58.099Z,14.80
2018-09-03T17:59:25.525Z,14.80
2018-09-03T18:01:53.192Z,14.60
2018-09-03T18:04:20.574Z,14.50
2018-09-03T18:06:47.996Z,14.40
2018-09-03T18:09:15.409Z,14.20
2018-09-03T18:11:42.865Z,14.10
2018-09-03T18:14:10.549Z,13.90
2018-09-03T18:16:37.949Z,13.70
2018-09-03T18:19:05.414Z,13.60
2018-09-03T18:21:32.892Z,13.50
2018-09-03T18:24:00.262Z,13.50
2018-09-03T18:26:27.689Z,13.40
2018-09-03T18:28:55.913Z,13.20
2018-09-03T18:31:23.332Z,13.20
2018-09-03T18:33:50.824Z,13.00
2018-09-03T18:36:18.324Z,12.90
2018-09-03T18:38:45.738Z,12.80
2018-09-03T18:41:13.164Z,12.70
2018-09-03T18:43:40.778Z,12.60
2018-09-03T18:46:08.204Z,12.50
2018-09-03T18:48:35.609Z,12.40
2018-09-03T18:51:03.062Z,12.30
2018-09-03T18:53:30.660Z,12.20
2018-09-03T18:55:58.069Z,12.10
2018-09-03T18:58:25.534Z,12.10
2018-09-03T19:00:52.963Z,11.90
2018-09-03T19:03:20.404Z,11.80
2018-09-03T19:05:47.801Z,11.70
2018-09-03T19:08:15.293Z,11.70
2018-09-03T19:10:42.775Z,11.60
2018-09-03T19:13:10.166Z,11.50
2018-09-03T19:15:37.580Z,11.40
2018-09-03T19:18:05.043Z,11.40
2018-09-03T19:20:32.473Z,11.30
2018-09-03T19:22:59.935Z,11.30
2018-09-03T19:25:27.339Z,11.30
2018-09-03T19:27:54.725Z,11.30
2018-09-03T19:30:22.241Z,11.30
2018-09-03T19:32:49.626Z,11.30
2018-09-03T19:35:17.135Z,11.40
2018-09-03T19:37:44.626Z,11.40
2018-09-03T19:40:12.041Z,11.30
2018-09-03T19:42:39.534Z,11.30
2018-09-03T19:45:06.969Z,11.20
2018-09-03T19:47:34.360Z,11.10
2018-09-03T19:50:01.841Z,11.10
2018-09-03T19:52:29.289Z,11.00
2018-09-03T19:54:56.682Z,11.00
2018-09-03T19:57:24.086Z,10.90
2018-09-03T19:59:51.938Z,10.90
2018-09-03T20:02:19.399Z,10.80
2018-09-03T20:04:46.780Z,10.70
2018-09-03T20:07:14.171Z,10.70
2018-09-03T20:09:41.633Z,10.70
2018-09-03T20:12:09.090Z,10.60
2018-09-03T20:14:36.519Z,10.60
2018-09-03T20:17:04.093Z,10.50
2018-09-03T20:19:31.530Z,10.60
2018-09-03T20:21:58.921Z,10.60
2018-09-03T20:24:26.515Z,10.40
2018-09-03T20:26:53.881Z,10.30
2018-09-03T20:29:21.306Z,10.20
2018-09-03T20:31:48.738Z,10.10
2018-09-03T20:34:16.143Z,10.10
2018-09-03T20:36:43.560Z,10.10
2018-09-03T20:39:10.990Z,10.20
2018-09-03T20:41:38.377Z,10.10
2018-09-03T20:44:05.856Z,10.10
2018-09-03T20:46:33.573Z,10.00
2018-09-03T20:49:01.022Z,9.90
2018-09-03T20:51:28.538Z,9.80
2018-09-03T20:53:55.921Z,9.70
2018-09-03T20:56:23.356Z,9.70
2018-09-03T20:58:50.808Z,9.60
2018-09-03T21:01:18.256Z,9.50
2018-09-03T21:03:45.653Z,9.40
2018-09-03T21:06:13.093Z,9.40
2018-09-03T21:08:40.475Z,9.30
2018-09-03T21:11:07.921Z,9.30
2018-09-03T21:13:35.465Z,9.30
2018-09-03T21:16:02.988Z,9.20
2018-09-03T21:18:30.373Z,9.20
2018-09-03T21:20:57.798Z,9.20
2018-09-03T21:23:25.278Z,9.20
2018-09-03T21:25:52.706Z,9.20
2018-09-03T21:28:20.105Z,9.10
2018-09-03T21:30:47.516Z,9.00
2018-09-03T21:33:14.955Z,8.80
2018-09-03T21:35:42.422Z,8.80
2018-09-03T21:38:09.862Z,8.70
2018-09-03T21:40:37.426Z,8.70
2018-09-03T21:43:04.889Z,8.70
2018-09-03T21:45:32.344Z,8.70
2018-09-03T21:47:59.769Z,8.60
2018-09-03T21:50:27.221Z,8.50
2018-09-03T21:52:54.648Z,8.50
2018-09-03T21:55:22.043Z,8.40
2018-09-03T21:57:49.453Z,8.40
2018-09-03T22:00:16.900Z,8.40
2018-09-03T22:02:44.679Z,8.30
2018-09-03T22:05:12.102Z,8.20
2018-09-03T22:07:39.532Z,8.10
2018-09-03T22:10:07.002Z,8.10
2018-09-03T22:12:34.377Z,8.00
2018-09-03T22:15:01.817Z,8.00
2018-09-03T22:17:29.284Z,8.00
2018-09-03T22:19:56.677Z,8.10
2018-09-03T22:22:24.064Z,8.10
2018-09-03T22:24:51.489Z,8.00
2018-09-03T22:27:18.893Z,8.00
2018-09-03T22:29:46.331Z,7.90
2018-09-03T22:32:13.776Z,7.90
2018-09-03T22:34:41.185Z,7.90
2018-09-03T22:37:08.584Z,7.90
2018-09-03T22:39:36.035Z,7.90
2018-09-03T22:42:03.441Z,7.90
2018-09-03T22:44:30.896Z,7.90
2018-09-03T22:46:58.352Z,7.80
2018-09-03T22:49:25.745Z,7.70
2018-09-03T22:51:53.157Z,7.60
2018-09-03T22:54:20.584Z,7.50
2018-09-03T22:56:47.961Z,7.40
2018-09-03T22:59:15.319Z,7.40
2018-09-03T23:01:42.744Z,7.40
2018-09-03T23:04:10.172Z,7.40
2018-09-03T23:06:37.574Z,7.40
2018-09-03T23:09:05.846Z,7.40
2018-09-03T23:11:33.308Z,7.30
2018-09-03T23:14:00.753Z,7.30
2018-09-03T23:16:28.165Z,7.30
2018-09-03T23:18:55.611Z,7.30
2018-09-03T23:21:23.169Z,7.20
2018-09-03T23:23:50.568Z,7.10
2018-09-03T23:26:18.105Z,7.10
2018-09-03T23:28:45.517Z,7.00
2018-09-03T23:31:12.982Z,6.90
2018-09-03T23:33:40.376Z,6.80
2018-09-03T23:36:07.824Z,6.80
2018-09-03T23:38:35.208Z,6.70
2018-09-03T23:41:02.611Z,6.70
2018-09-03T23:43:30.056Z,6.70
2018-09-03T23:45:57.469Z,6.70
2018-09-03T23:48:24.901Z,6.70
2018-09-03T23:50:52.409Z,6.70
2018-09-03T23:53:19.809Z,6.70
2018-09-03T23:55:47.251Z,6.60
2018-09-03T23:58:14.841Z,6.60
